createdAt,value
2023-04-02T00:01:05.676Z,8.00
2023-04-02T00:04:09.052Z,7.90
2023-04-02T00:06:40.336Z,7.80
2023-04-02T00:09:30.262Z,7.80
2023-04-02T00:11:58.125Z,7.80
2023-04-02T00:14:28.917Z,7.70
2023-04-02T00:16:57.497Z,7.70
2023-04-02T00:19:29.316Z,7.70
2023-04-02T00:21:57.185Z,7.60
2023-04-02T00:24:25.039Z,7.60
2023-04-02T00:26:53.406Z,7.60
2023-04-02T00:29:21.307Z,7.60
2023-04-02T00:31:51.444Z,7.50
2023-04-02T00:34:21.103Z,7.50
2023-04-02T00:36:49.091Z,7.60
2023-04-02T00:39:20.165Z,7.60
2023-04-02T00:41:48.079Z,7.60
2023-04-02T00:44:16.172Z,7.50
2023-04-02T00:46:49.461Z,7.50
2023-04-02T00:49:23.997Z,7.50
2023-04-02T00:51:54.249Z,7.50
2023-04-02T00:54:22.809Z,7.40
2023-04-02T00:56:53.310Z,7.40
2023-04-02T00:59:23.783Z,7.30
2023-04-02T01:01:54.150Z,7.40
2023-04-02T01:04:36.611Z,7.40
2023-04-02T01:07:06.668Z,7.40
2023-04-02T01:09:47.968Z,7.40
2023-04-02T01:12:30.888Z,7.30
2023-04-02T01:15:01.791Z,7.40
2023-04-02T01:17:39.641Z,7.30
2023-04-02T01:20:38.943Z,7.30
2023-04-02T01:23:09.065Z,7.30
2023-04-02T01:25:41.554Z,7.10
2023-04-02T01:28:11.867Z,7.20
2023-04-02T01:30:41.532Z,7.20
2023-04-02T01:33:09.403Z,7.10
2023-04-02T01:35:38.538Z,7.10
2023-04-02T01:38:07.662Z,7.20
2023-04-02T01:40:37.541Z,7.20
2023-04-02T01:43:11.089Z,7.10
2023-04-02T01:45:40.254Z,7.10
2023-04-02T01:48:13.879Z,6.90
2023-04-02T01:50:41.813Z,7.00
2023-04-02T01:53:11.268Z,7.00
2023-04-02T01:55:41.706Z,6.80
2023-04-02T01:58:11.292Z,6.80
2023-04-02T02:00:42.928Z,6.90
2023-04-02T02:03:12.121Z,6.80
2023-04-02T02:05:39.992Z,6.70
2023-04-02T02:08:08.313Z,6.70
2023-04-02T02:10:37.209Z,6.70
2023-04-02T02:13:04.973Z,6.80
2023-04-02T02:15:34.138Z,6.70
2023-04-02T02:18:06.489Z,6.70
2023-04-02T02:20:34.485Z,6.70
2023-04-02T02:23:03.623Z,6.60
2023-04-02T02:25:32.644Z,6.70
2023-04-02T02:29:11.623Z,6.60
2023-04-02T02:31:41.815Z,6.50
2023-04-02T02:34:16.394Z,6.40
2023-04-02T02:36:46.537Z,6.40
2023-04-02T02:39:15.099Z,6.30
2023-04-02T02:41:43.826Z,6.30
2023-04-02T02:44:14.046Z,6.30
2023-04-02T02:46:44.516Z,6.30
2023-04-02T02:49:15.437Z,6.30
2023-04-02T02:51:46.083Z,6.20
2023-04-02T02:54:13.865Z,6.20
2023-04-02T02:56:42.865Z,6.10
2023-04-02T02:59:11.373Z,6.10
2023-04-02T03:01:39.204Z,6.10
2023-04-02T03:04:07.137Z,6.10
2023-04-02T03:06:37.230Z,6.00
2023-04-02T03:09:06.283Z,6.00
2023-04-02T03:11:36.766Z,5.90
2023-04-02T03:14:09.090Z,5.90
2023-04-02T03:16:38.460Z,5.80
2023-04-02T03:19:08.379Z,5.70
2023-04-02T03:21:39.055Z,5.60
2023-04-02T03:24:09.806Z,5.60
2023-04-02T03:26:40.024Z,5.60
2023-04-02T03:29:09.766Z,5.60
2023-04-02T03:31:39.089Z,5.70
2023-04-02T03:34:09.770Z,5.50
2023-04-02T03:36:43.582Z,5.40
2023-04-02T03:39:13.533Z,5.40
2023-04-02T03:41:42.609Z,5.40
2023-04-02T03:44:18.156Z,5.30
2023-04-02T03:46:47.179Z,5.30
2023-04-02T03:49:17.994Z,5.30
2023-04-02T03:51:51.176Z,5.50
2023-04-02T03:54:18.970Z,5.40
2023-04-02T03:56:47.600Z,5.50
2023-04-02T03:59:17.662Z,5.40
2023-04-02T04:01:48.921Z,5.40
2023-04-02T04:04:19.016Z,5.40
2023-04-02T04:06:50.302Z,5.30
2023-04-02T04:09:20.510Z,5.30
2023-04-02T04:11:49.819Z,5.40
2023-04-02T04:14:19.432Z,5.30
2023-04-02T04:16:49.125Z,5.30
2023-04-02T04:19:18.103Z,5.30
2023-04-02T04:21:47.689Z,5.30
2023-04-02T04:24:20.239Z,5.30
2023-04-02T04:26:49.613Z,5.10
2023-04-02T04:29:26.834Z,5.10
2023-04-02T04:31:55.597Z,5.20
2023-04-02T04:34:26.416Z,5.20
2023-04-02T04:36:57.473Z,5.10
2023-04-02T04:39:29.850Z,5.20
2023-04-02T04:41:58.780Z,5.20
2023-04-02T04:44:29.759Z,5.20
2023-04-02T04:46:58.909Z,5.30
2023-04-02T04:49:28.362Z,5.20
2023-04-02T04:51:58.399Z,5.20
2023-04-02T04:54:26.785Z,5.20
2023-04-02T04:56:56.359Z,5.20
2023-04-02T04:59:26.208Z,5.00
2023-04-02T05:01:56.489Z,5.00
2023-04-02T05:04:26.028Z,5.10
2023-04-02T05:06:55.670Z,5.20
2023-04-02T05:09:28.157Z,5.20
2023-04-02T05:12:02.451Z,5.10
2023-04-02T05:14:32.544Z,5.10
2023-04-02T05:17:02.018Z,5.00
2023-04-02T05:19:32.053Z,5.00
2023-04-02T05:22:01.449Z,4.90
2023-04-02T05:24:39.986Z,4.80
2023-04-02T05:27:14.207Z,4.70
2023-04-02T05:29:42.748Z,5.00
2023-04-02T05:32:12.888Z,5.00
2023-04-02T05:34:40.733Z,4.90
2023-04-02T05:37:09.197Z,4.90
2023-04-02T05:39:38.344Z,5.00
2023-04-02T05:42:08.105Z,5.10
2023-04-02T05:44:39.058Z,5.00
2023-04-02T05:47:08.938Z,4.80
2023-04-02T05:49:39.829Z,5.00
2023-04-02T05:52:08.955Z,5.10
2023-04-02T05:54:40.604Z,5.20
2023-04-02T05:57:10.328Z,5.30
2023-04-02T05:59:39.065Z,5.40
2023-04-02T06:02:08.379Z,5.50
2023-04-02T06:04:37.632Z,5.60
2023-04-02T06:07:06.394Z,5.70
2023-04-02T06:09:41.551Z,5.80
2023-04-02T06:12:17.481Z,5.90
2023-04-02T06:14:45.583Z,5.90
2023-04-02T06:17:16.152Z,6.00
2023-04-02T06:19:44.339Z,6.00
2023-04-02T06:22:17.632Z,6.00
2023-04-02T06:24:46.828Z,5.90
2023-04-02T06:27:16.243Z,5.90
2023-04-02T06:29:44.265Z,6.00
2023-04-02T06:32:13.126Z,6.00
2023-04-02T06:34:42.028Z,6.60
2023-04-02T06:37:17.292Z,6.60
2023-04-02T06:39:46.534Z,6.50
2023-04-02T06:42:15.421Z,6.40
2023-04-02T06:44:43.344Z,6.40
2023-04-02T06:47:14.780Z,6.50
2023-04-02T06:49:43.971Z,6.80
2023-04-02T06:52:14.815Z,7.00
2023-04-02T06:54:42.644Z,7.60
2023-04-02T06:57:11.921Z,7.00
2023-04-02T06:59:39.844Z,6.80
2023-04-02T07:02:19.385Z,6.70
2023-04-02T07:04:47.246Z,6.60
2023-04-02T07:07:15.137Z,6.60
2023-04-02T07:09:43.332Z,6.60
2023-04-02T07:12:13.815Z,6.70
2023-04-02T07:14:41.872Z,6.70
2023-04-02T07:17:13.081Z,6.80
2023-04-02T07:19:41.854Z,6.90
2023-04-02T07:22:09.626Z,7.00
2023-04-02T07:24:37.399Z,7.20
2023-04-02T07:27:05.306Z,7.30
2023-04-02T07:29:34.422Z,7.30
2023-04-02T07:32:02.238Z,7.50
2023-04-02T07:34:30.062Z,7.70
2023-04-02T07:36:57.835Z,8.00
2023-04-02T07:39:25.685Z,8.30
2023-04-02T07:41:54.718Z,8.30
2023-04-02T07:44:22.507Z,8.30
2023-04-02T07:46:51.755Z,8.50
2023-04-02T07:49:19.595Z,8.50
2023-04-02T07:51:47.455Z,8.50
2023-04-02T07:54:15.413Z,8.50
2023-04-02T07:56:43.394Z,8.50
2023-04-02T07:59:11.319Z,8.60
2023-04-02T08:01:39.202Z,8.80
2023-04-02T08:04:10.588Z,9.00
2023-04-02T08:06:38.377Z,9.20
2023-04-02T08:09:06.234Z,9.30
2023-04-02T08:11:34.034Z,9.60
2023-04-02T08:14:02.244Z,9.50
2023-04-02T08:16:30.334Z,9.80
2023-04-02T08:18:58.118Z,9.80
2023-04-02T08:21:27.306Z,9.60
2023-04-02T08:23:55.085Z,9.50
2023-04-02T08:26:22.896Z,9.40
2023-04-02T08:28:50.726Z,9.40
2023-04-02T08:31:19.103Z,9.30
2023-04-02T08:33:46.954Z,9.40
2023-04-02T08:36:16.864Z,9.40
2023-04-02T08:38:46.270Z,9.30
2023-04-02T08:41:17.979Z,9.60
2023-04-02T08:44:07.104Z,9.60
2023-04-02T08:46:36.539Z,9.80
2023-04-02T08:49:05.614Z,10.10
2023-04-02T08:51:35.493Z,10.30
2023-04-02T08:54:08.817Z,10.50
2023-04-02T08:56:38.767Z,10.50
2023-04-02T08:59:10.602Z,10.30
2023-04-02T09:01:42.970Z,10.00
2023-04-02T09:04:15.393Z,10.00
2023-04-02T09:06:43.866Z,10.20
2023-04-02T09:09:13.638Z,10.00
2023-04-02T09:11:47.465Z,10.00
2023-04-02T09:14:16.961Z,10.10
2023-04-02T09:16:45.914Z,10.10
2023-04-02T09:19:19.517Z,10.20
2023-04-02T09:21:49.585Z,10.30
2023-04-02T09:24:18.861Z,10.50
2023-04-02T09:26:46.852Z,10.60
2023-04-02T09:29:30.642Z,10.80
2023-04-02T09:32:00.916Z,10.70
2023-04-02T09:34:29.627Z,10.50
2023-04-02T09:36:57.677Z,10.40
2023-04-02T09:39:27.133Z,10.30
2023-04-02T09:42:05.124Z,10.50
2023-04-02T09:44:33.908Z,10.40
2023-04-02T09:47:03.668Z,10.50
2023-04-02T09:49:32.280Z,10.70
2023-04-02T09:52:21.055Z,10.90
2023-04-02T09:55:06.225Z,11.10
2023-04-02T09:57:34.353Z,11.30
2023-04-02T10:00:29.875Z,12.00
2023-04-02T10:03:06.923Z,11.70
2023-04-02T10:08:16.653Z,10.80
2023-04-02T10:10:47.260Z,10.60
2023-04-02T10:13:19.680Z,10.60
2023-04-02T10:15:49.779Z,10.30
2023-04-02T10:18:21.370Z,10.30
2023-04-02T10:20:51.496Z,10.10
2023-04-02T10:23:20.042Z,10.10
2023-04-02T10:25:50.943Z,10.00
2023-04-02T10:28:23.731Z,9.90
2023-04-02T10:30:55.134Z,9.90
2023-04-02T10:33:25.261Z,9.90
2023-04-02T10:35:54.988Z,10.00
2023-04-02T10:38:42.758Z,10.00
2023-04-02T10:41:19.134Z,10.20
2023-04-02T10:44:18.880Z,10.60
2023-04-02T10:46:52.820Z,10.50
2023-04-02T10:49:26.072Z,10.50
2023-04-02T10:51:59.514Z,10.40
2023-04-02T10:54:40.973Z,10.50
2023-04-02T10:57:15.099Z,10.40
2023-04-02T10:59:44.290Z,10.40
2023-04-02T11:02:31.867Z,10.50
2023-04-02T11:05:01.937Z,10.40
2023-04-02T11:07:30.910Z,10.60
2023-04-02T11:09:59.022Z,10.70
2023-04-02T11:12:42.535Z,10.70
2023-04-02T11:15:16.004Z,10.80
2023-04-02T11:17:44.073Z,10.90
2023-04-02T11:20:58.373Z,10.90
2023-04-02T11:23:28.653Z,10.90
2023-04-02T11:26:30.576Z,10.90
2023-04-02T11:29:25.479Z,11.10
2023-04-02T11:32:14.890Z,11.10
2023-04-02T11:35:27.026Z,11.10
2023-04-02T11:37:55.574Z,11.60
2023-04-02T11:40:46.473Z,12.20
2023-04-02T11:43:52.136Z,13.00
2023-04-02T11:46:49.201Z,13.50
2023-04-02T11:49:40.155Z,13.20
2023-04-02T11:52:36.580Z,13.50
2023-04-02T11:55:27.202Z,13.10
2023-04-02T11:58:30.793Z,12.60
2023-04-02T12:01:19.271Z,13.10
2023-04-02T12:03:56.310Z,13.20
2023-04-02T12:06:27.878Z,13.80
2023-04-02T12:09:04.716Z,13.20
2023-04-02T12:11:34.098Z,12.80
2023-04-02T12:14:02.149Z,12.30
2023-04-02T12:16:32.664Z,12.30
2023-04-02T12:19:01.923Z,11.80
2023-04-02T12:21:30.626Z,11.70
2023-04-02T12:23:59.667Z,11.60
2023-04-02T12:26:31.975Z,11.60
2023-04-02T12:29:26.506Z,11.00
2023-04-02T12:31:55.164Z,10.80
2023-04-02T12:34:25.544Z,10.70
2023-04-02T12:36:55.012Z,10.70
2023-04-02T12:39:24.285Z,10.60
2023-04-02T12:41:52.987Z,10.30
2023-04-02T12:44:22.161Z,10.10
2023-04-02T12:46:50.702Z,10.00
2023-04-02T12:49:40.188Z,10.10
2023-04-02T12:52:10.169Z,10.20
2023-04-02T12:54:39.428Z,10.20
2023-04-02T12:57:39.847Z,10.30
2023-04-02T13:00:36.006Z,10.80
2023-04-02T13:03:20.416Z,10.70
2023-04-02T13:05:50.832Z,10.60
2023-04-02T13:08:21.521Z,10.60
2023-04-02T13:10:53.611Z,10.50
2023-04-02T13:13:28.168Z,10.80
2023-04-02T13:16:23.875Z,10.70
2023-04-02T13:18:52.006Z,10.90
2023-04-02T13:21:28.122Z,10.90
2023-04-02T13:23:57.724Z,10.90
2023-04-02T13:26:26.235Z,11.00
2023-04-02T13:28:58.304Z,11.10
2023-04-02T13:31:26.258Z,11.10
2023-04-02T13:33:54.096Z,11.30
2023-04-02T13:36:21.877Z,11.30
2023-04-02T13:38:49.688Z,11.50
2023-04-02T13:41:22.342Z,11.70
2023-04-02T13:43:50.742Z,12.40
2023-04-02T13:46:21.361Z,12.30
2023-04-02T13:48:49.303Z,12.30
2023-04-02T13:51:18.739Z,12.30
2023-04-02T13:53:46.956Z,12.40
2023-04-02T13:56:14.791Z,12.00
2023-04-02T13:58:44.134Z,12.00
2023-04-02T14:01:12.114Z,11.90
2023-04-02T14:03:40.793Z,12.00
2023-04-02T14:06:10.970Z,12.20
2023-04-02T14:08:45.681Z,11.70
2023-04-02T14:11:21.977Z,11.50
2023-04-02T14:14:06.231Z,11.50
2023-04-02T14:16:44.043Z,11.70
2023-04-02T14:19:20.941Z,11.80
2023-04-02T14:21:54.706Z,11.60
2023-04-02T14:24:24.410Z,11.80
2023-04-02T14:27:00.246Z,11.70
2023-04-02T14:29:32.189Z,11.60
2023-04-02T14:32:03.895Z,11.50
2023-04-02T14:34:34.889Z,11.50
2023-04-02T14:37:06.038Z,11.40
2023-04-02T14:39:40.107Z,11.60
2023-04-02T14:42:13.805Z,11.60
2023-04-02T14:44:44.719Z,11.60
2023-04-02T14:47:19.298Z,11.70
2023-04-02T14:49:49.502Z,11.80
2023-04-02T14:52:18.166Z,11.80
2023-04-02T14:54:51.869Z,11.80
2023-04-02T14:57:23.025Z,11.80
2023-04-02T15:00:00.837Z,11.60
2023-04-02T15:02:35.128Z,11.50
2023-04-02T15:05:04.663Z,11.50
2023-04-02T15:07:37.116Z,11.40
2023-04-02T15:10:07.693Z,11.10
2023-04-02T15:12:37.017Z,11.00
2023-04-02T15:15:09.894Z,10.80
2023-04-02T15:17:37.821Z,10.80
2023-04-02T15:20:13.668Z,10.70
2023-04-02T15:22:42.389Z,10.70
2023-04-02T15:28:08.767Z,10.60
2023-04-02T15:31:07.283Z,10.10
2023-04-02T15:33:45.357Z,10.00
2023-04-02T15:36:48.966Z,9.70
2023-04-02T15:40:07.217Z,9.60
2023-04-02T15:42:37.948Z,9.40
2023-04-02T15:45:39.325Z,9.30
2023-04-02T15:52:57.788Z,8.60
2023-04-02T15:56:01.189Z,8.40
2023-04-02T15:59:09.809Z,8.60
2023-04-02T16:02:00.190Z,8.60
2023-04-02T16:05:32.212Z,8.60
2023-04-02T16:08:12.895Z,8.60
2023-04-02T16:10:45.189Z,8.50
2023-04-02T16:13:37.196Z,8.70
2023-04-02T16:16:09.042Z,8.30
2023-04-02T16:22:34.824Z,8.40
2023-04-02T16:28:43.239Z,8.20
2023-04-02T16:31:13.852Z,8.00
2023-04-02T16:33:57.022Z,7.80
2023-04-02T16:36:44.365Z,7.90
2023-04-02T16:42:20.746Z,7.70
2023-04-02T16:45:47.593Z,7.80
2023-04-02T16:48:20.640Z,7.70
2023-04-02T16:50:56.357Z,7.70
2023-04-02T16:53:35.630Z,7.70
2023-04-02T16:56:28.117Z,7.70
2023-04-02T16:59:00.664Z,7.70
2023-04-02T17:01:32.049Z,7.70
2023-04-02T17:04:08.920Z,7.70
2023-04-02T17:06:43.875Z,7.60
2023-04-02T17:09:17.097Z,7.70
2023-04-02T17:11:49.862Z,7.70
2023-04-02T17:14:25.846Z,7.50
2023-04-02T17:16:57.383Z,7.50
2023-04-02T17:19:25.950Z,7.40
2023-04-02T17:21:56.022Z,7.40
2023-04-02T17:24:26.928Z,7.50
2023-04-02T17:26:58.096Z,7.50
2023-04-02T17:29:28.864Z,7.30
2023-04-02T17:31:57.889Z,7.40
2023-04-02T17:34:27.540Z,7.50
2023-04-02T17:37:03.819Z,7.70
2023-04-02T17:39:35.978Z,7.60
2023-04-02T17:42:11.049Z,7.60
2023-04-02T17:45:05.614Z,7.60
2023-04-02T17:47:38.956Z,7.60
2023-04-02T17:50:26.926Z,7.40
2023-04-02T17:52:57.293Z,7.20
2023-04-02T17:55:31.213Z,7.20
2023-04-02T17:58:05.190Z,7.40
2023-04-02T18:00:39.856Z,7.60
2023-04-02T18:03:20.593Z,7.60
2023-04-02T18:05:51.887Z,7.50
2023-04-02T18:08:22.632Z,7.60
2023-04-02T18:10:56.546Z,7.40
2023-04-02T18:13:31.900Z,7.30
2023-04-02T18:16:03.446Z,7.40
2023-04-02T18:18:45.013Z,7.50
2023-04-02T18:21:17.198Z,7.50
2023-04-02T18:23:53.695Z,7.40
2023-04-02T18:26:25.640Z,7.20
2023-04-02T18:28:58.664Z,7.20
2023-04-02T18:31:31.833Z,7.10
2023-04-02T18:34:26.327Z,7.10
2023-04-02T18:37:01.329Z,7.10
2023-04-02T18:39:34.505Z,7.20
2023-04-02T18:42:04.643Z,7.20
2023-04-02T18:44:43.344Z,7.20
2023-04-02T18:47:15.026Z,7.20
2023-04-02T18:49:44.536Z,7.00
2023-04-02T18:52:13.169Z,7.10
2023-04-02T18:54:42.347Z,7.30
2023-04-02T18:57:14.557Z,7.40
2023-04-02T18:59:46.158Z,7.40
2023-04-02T19:02:34.814Z,7.20
2023-04-02T19:05:04.468Z,7.20
2023-04-02T19:07:33.470Z,7.00
2023-04-02T19:10:04.529Z,7.10
2023-04-02T19:12:33.931Z,7.00
2023-04-02T19:15:03.090Z,6.80
2023-04-02T19:17:31.781Z,6.70
2023-04-02T19:20:04.180Z,6.70
2023-04-02T19:22:35.922Z,6.70
2023-04-02T19:25:22.402Z,6.70
2023-04-02T19:28:07.130Z,6.50
2023-04-02T19:30:50.072Z,6.30
2023-04-02T19:33:26.373Z,6.40
2023-04-02T19:35:56.793Z,6.20
2023-04-02T19:38:36.530Z,6.40
2023-04-02T19:41:06.625Z,6.20
2023-04-02T19:43:34.500Z,6.00
2023-04-02T19:46:03.644Z,5.90
2023-04-02T19:48:38.521Z,5.90
2023-04-02T19:51:06.604Z,6.10
2023-04-02T19:53:35.268Z,5.50
2023-04-02T19:56:03.137Z,5.50
2023-04-02T19:58:31.700Z,5.50
2023-04-02T20:00:59.716Z,5.70
2023-04-02T20:03:28.933Z,5.60
2023-04-02T20:05:56.895Z,5.60
2023-04-02T20:08:24.693Z,5.40
2023-04-02T20:10:52.540Z,5.20
2023-04-02T20:13:20.368Z,5.30
2023-04-02T20:15:48.204Z,5.00
2023-04-02T20:18:16.384Z,5.10
2023-04-02T20:20:47.694Z,5.10
2023-04-02T20:23:16.261Z,4.80
2023-04-02T20:25:46.803Z,5.10
2023-04-02T20:28:14.618Z,4.80
2023-04-02T20:30:42.417Z,4.90
2023-04-02T20:33:10.327Z,4.80
2023-04-02T20:35:38.260Z,4.90
2023-04-02T20:38:08.253Z,4.70
2023-04-02T20:40:36.475Z,4.60
2023-04-02T20:43:04.402Z,4.80
2023-04-02T20:45:32.322Z,4.70
2023-04-02T20:48:00.329Z,4.50
2023-04-02T20:50:28.277Z,4.50
2023-04-02T20:52:56.447Z,4.50
2023-04-02T20:55:25.632Z,4.70
2023-04-02T20:57:53.476Z,4.40
2023-04-02T21:00:22.465Z,4.40
2023-04-02T21:02:50.340Z,4.60
2023-04-02T21:05:18.265Z,4.50
2023-04-02T21:07:46.117Z,4.50
2023-04-02T21:10:13.910Z,4.40
2023-04-02T21:12:43.150Z,4.40
2023-04-02T21:15:13.023Z,4.20
2023-04-02T21:17:40.834Z,4.30
2023-04-02T21:20:10.699Z,4.30
2023-04-02T21:22:39.248Z,4.30
2023-04-02T21:25:07.973Z,4.50
2023-04-02T21:27:35.872Z,4.20
2023-04-02T21:30:05.381Z,4.30
2023-04-02T21:32:33.616Z,4.00
2023-04-02T21:35:01.457Z,4.00
2023-04-02T21:37:29.282Z,3.70
2023-04-02T21:39:57.096Z,3.90
2023-04-02T21:42:25.092Z,3.90
2023-04-02T21:44:53.580Z,3.70
2023-04-02T21:47:23.478Z,3.70
2023-04-02T21:49:51.338Z,3.70
2023-04-02T21:52:19.197Z,3.80
2023-04-02T21:54:47.102Z,3.70
2023-04-02T21:57:16.166Z,3.60
2023-04-02T21:59:45.098Z,3.70
2023-04-02T22:02:13.046Z,3.40
2023-04-02T22:04:42.263Z,3.40
2023-04-02T22:07:10.072Z,3.60
2023-04-02T22:09:37.879Z,3.40
2023-04-02T22:12:07.872Z,3.20
2023-04-02T22:14:35.737Z,3.10
2023-04-02T22:17:03.751Z,3.00
2023-04-02T22:19:32.975Z,2.90
2023-04-02T22:22:02.179Z,2.90
2023-04-02T22:24:30.091Z,2.80
2023-04-02T22:26:57.865Z,2.80
2023-04-02T22:29:25.699Z,2.60
2023-04-02T22:31:53.833Z,2.40
2023-04-02T22:34:22.074Z,2.50
2023-04-02T22:36:49.863Z,2.50
2023-04-02T22:39:19.131Z,2.60
2023-04-02T22:41:46.942Z,2.60
2023-04-02T22:44:15.415Z,2.70
2023-04-02T22:46:43.254Z,2.60
2023-04-02T22:49:12.364Z,2.90
2023-04-02T22:51:40.234Z,2.60
2023-04-02T22:54:08.020Z,2.70
2023-04-02T22:56:37.608Z,2.70
2023-04-02T22:59:05.724Z,2.60
2023-04-02T23:01:34.310Z,2.60
2023-04-02T23:04:02.171Z,2.50
2023-04-02T23:06:29.970Z,2.30
2023-04-02T23:08:57.840Z,2.50
2023-04-02T23:11:27.230Z,2.50
2023-04-02T23:13:57.381Z,2.60
2023-04-02T23:16:26.926Z,2.50
2023-04-02T23:18:55.453Z,2.50
2023-04-02T23:21:23.796Z,2.60
2023-04-02T23:23:51.675Z,2.50
2023-04-02T23:26:21.140Z,2.60
2023-04-02T23:28:49.013Z,2.60
2023-04-02T23:31:19.820Z,2.60
2023-04-02T23:33:47.615Z,2.70
2023-04-02T23:36:17.417Z,2.60
2023-04-02T23:38:45.299Z,2.60
2023-04-02T23:41:14.758Z,2.60
2023-04-02T23:43:42.632Z,2.60
2023-04-02T23:46:10.746Z,2.60
2023-04-02T23:48:40.097Z,2.70
2023-04-02T23:51:08.126Z,2.70
2023-04-02T23:53:36.011Z,2.60
2023-04-02T23:56:04.028Z,2.50
2023-04-02T23:58:31.832Z,2.50
